createdAt,value
2023-04-26T00:02:24.950Z,6.40
2023-04-26T00:04:56.670Z,6.70
2023-04-26T00:07:24.977Z,6.90
2023-04-26T00:09:55.120Z,6.80
2023-04-26T00:12:22.532Z,6.90
2023-04-26T00:14:49.987Z,8.30
2023-04-26T00:17:17.461Z,6.90
2023-04-26T00:19:45.224Z,7.10
2023-04-26T00:22:13.016Z,8.00
2023-04-26T00:24:40.442Z,6.50
2023-04-26T00:27:10.461Z,6.50
2023-04-26T00:29:37.824Z,6.60
2023-04-26T00:32:05.491Z,7.00
2023-04-26T00:34:37.488Z,6.50
2023-04-26T00:37:05.512Z,6.40
2023-04-26T00:42:00.784Z,6.40
2023-04-26T00:44:28.135Z,6.40
2023-04-26T00:46:56.015Z,5.70
2023-04-26T00:49:25.486Z,6.10
2023-04-26T00:51:53.539Z,6.60
2023-04-26T00:54:21.697Z,6.50
2023-04-26T00:56:52.019Z,6.20
2023-04-26T00:59:22.535Z,6.40
2023-04-26T01:01:50.000Z,6.10
2023-04-26T01:04:18.182Z,6.10
2023-04-26T01:06:46.391Z,6.20
2023-04-26T01:09:15.479Z,7.50
2023-04-26T01:11:44.815Z,6.10
2023-04-26T01:16:40.947Z,6.20
2023-04-26T01:19:12.970Z,6.20
2023-04-26T01:21:41.084Z,7.40
2023-04-26T01:24:12.529Z,6.10
2023-04-26T01:26:46.784Z,7.40
2023-04-26T01:29:21.196Z,6.20
2023-04-26T01:31:49.179Z,6.20
2023-04-26T01:34:16.674Z,6.30
2023-04-26T01:36:46.539Z,6.30
2023-04-26T01:41:41.453Z,6.30
2023-04-26T01:44:08.810Z,6.30
2023-04-26T01:46:36.168Z,7.00
2023-04-26T01:51:31.370Z,5.70
2023-04-26T01:53:59.475Z,6.40
2023-04-26T01:58:56.590Z,6.20
2023-04-26T02:01:24.537Z,6.10
2023-04-26T02:03:52.620Z,6.10
2023-04-26T02:06:21.390Z,6.10
2023-04-26T02:08:49.531Z,6.10
2023-04-26T02:11:16.981Z,6.20
2023-04-26T02:13:44.303Z,6.10
2023-04-26T02:16:11.626Z,5.90
2023-04-26T02:18:39.359Z,6.10
2023-04-26T02:21:09.221Z,6.00
2023-04-26T02:23:36.685Z,6.30
2023-04-26T02:26:04.544Z,6.50
2023-04-26T02:28:32.186Z,6.20
2023-04-26T02:30:59.799Z,6.30
2023-04-26T02:33:27.240Z,6.20
2023-04-26T02:38:22.467Z,6.20
2023-04-26T02:40:50.075Z,6.20
2023-04-26T02:43:18.181Z,6.20
2023-04-26T02:45:45.515Z,6.30
2023-04-26T02:48:14.700Z,6.30
2023-04-26T02:53:11.532Z,6.30
2023-04-26T02:55:40.050Z,6.30
2023-04-26T02:58:07.859Z,6.10
2023-04-26T03:00:35.461Z,6.40
2023-04-26T03:03:03.006Z,6.30
2023-04-26T03:05:30.640Z,6.20
2023-04-26T03:07:58.374Z,7.30
2023-04-26T03:10:25.860Z,6.30
2023-04-26T03:12:53.229Z,6.20
2023-04-26T03:15:20.629Z,6.10
2023-04-26T03:17:48.131Z,6.50
2023-04-26T03:20:15.965Z,5.90
2023-04-26T03:22:43.286Z,6.30
2023-04-26T03:25:10.892Z,6.30
2023-04-26T03:27:38.209Z,6.30
2023-04-26T03:30:06.581Z,6.80
2023-04-26T03:32:36.086Z,6.30
2023-04-26T03:37:32.317Z,6.40
2023-04-26T03:40:06.232Z,6.30
2023-04-26T03:42:33.787Z,6.30
2023-04-26T03:45:01.259Z,6.20
2023-04-26T03:47:28.659Z,6.20
2023-04-26T03:49:55.968Z,6.30
2023-04-26T03:54:51.141Z,6.30
2023-04-26T03:57:19.573Z,6.30
2023-04-26T03:59:46.843Z,6.40
2023-04-26T04:02:14.734Z,6.50
2023-04-26T04:04:42.512Z,6.40
2023-04-26T04:07:10.026Z,6.30
2023-04-26T04:09:37.586Z,6.50
2023-04-26T04:12:05.052Z,6.30
2023-04-26T04:14:33.192Z,6.00
2023-04-26T04:17:00.874Z,6.70
2023-04-26T04:19:29.616Z,6.30
2023-04-26T04:21:56.891Z,6.10
2023-04-26T04:24:25.732Z,9.00
2023-04-26T04:26:53.383Z,6.30
2023-04-26T04:29:21.077Z,6.20
2023-04-26T04:31:48.557Z,7.20
2023-04-26T04:36:44.822Z,6.20
2023-04-26T04:41:48.387Z,6.10
2023-04-26T04:44:18.508Z,8.10
2023-04-26T04:46:46.104Z,7.20
2023-04-26T04:49:14.979Z,6.30
2023-04-26T04:51:42.497Z,6.70
2023-04-26T04:54:12.750Z,6.40
2023-04-26T04:56:40.235Z,6.60
2023-04-26T04:59:08.757Z,6.40
2023-04-26T05:01:38.429Z,6.30
2023-04-26T05:04:10.031Z,6.50
2023-04-26T05:06:38.563Z,4.60
2023-04-26T05:09:05.967Z,6.60
2023-04-26T05:11:33.703Z,6.70
2023-04-26T05:14:02.230Z,6.60
2023-04-26T05:16:30.073Z,6.40
2023-04-26T05:18:58.947Z,6.60
2023-04-26T05:21:26.324Z,6.70
2023-04-26T05:23:54.100Z,7.30
2023-04-26T05:26:21.852Z,6.90
2023-04-26T05:29:07.496Z,7.10
2023-04-26T05:31:52.238Z,6.90
2023-04-26T05:34:33.805Z,6.90
2023-04-26T05:37:02.043Z,7.20
2023-04-26T05:39:29.381Z,7.00
2023-04-26T05:41:57.974Z,7.20
2023-04-26T05:44:26.003Z,7.30
2023-04-26T05:46:53.427Z,8.00
2023-04-26T05:49:20.866Z,7.40
2023-04-26T05:51:48.467Z,7.20
2023-04-26T05:54:15.886Z,8.90
2023-04-26T05:56:43.310Z,7.50
2023-04-26T05:59:12.153Z,7.40
2023-04-26T06:01:40.985Z,7.50
2023-04-26T06:04:09.096Z,7.50
2023-04-26T06:06:46.992Z,7.60
2023-04-26T06:09:14.394Z,8.00
2023-04-26T06:11:41.667Z,7.50
2023-04-26T06:14:19.774Z,7.50
2023-04-26T06:16:52.538Z,8.30
2023-04-26T06:19:19.936Z,7.90
2023-04-26T06:21:48.943Z,7.90
2023-04-26T06:24:16.410Z,8.10
2023-04-26T06:26:43.819Z,8.00
2023-04-26T06:29:11.158Z,8.30
2023-04-26T06:31:38.828Z,8.50
2023-04-26T06:34:06.785Z,8.40
2023-04-26T06:36:35.366Z,8.50
2023-04-26T06:39:04.013Z,8.40
2023-04-26T06:41:31.650Z,8.40
2023-04-26T06:43:59.275Z,8.60
2023-04-26T06:49:01.332Z,8.60
2023-04-26T06:51:29.719Z,8.60
2023-04-26T06:53:59.126Z,8.70
2023-04-26T06:59:02.289Z,8.80
2023-04-26T07:01:33.504Z,8.90
2023-04-26T07:04:07.893Z,9.10
2023-04-26T07:06:37.146Z,9.30
2023-04-26T07:09:04.567Z,9.10
2023-04-26T07:11:32.365Z,8.80
2023-04-26T07:13:59.930Z,9.20
2023-04-26T07:16:27.639Z,9.30
2023-04-26T07:18:58.242Z,9.50
2023-04-26T07:21:28.876Z,9.60
2023-04-26T07:24:04.910Z,10.40
2023-04-26T07:26:32.537Z,10.00
2023-04-26T07:29:00.912Z,10.10
2023-04-26T07:31:28.277Z,9.90
2023-04-26T07:33:55.881Z,9.70
2023-04-26T07:36:25.044Z,9.90
2023-04-26T07:38:55.305Z,10.20
2023-04-26T07:41:22.828Z,8.00
2023-04-26T07:43:50.829Z,9.40
2023-04-26T07:46:18.564Z,9.60
2023-04-26T07:48:46.018Z,9.70
2023-04-26T07:51:14.070Z,9.80
2023-04-26T07:53:42.030Z,9.60
2023-04-26T07:56:10.083Z,9.80
2023-04-26T07:58:39.435Z,9.60
2023-04-26T08:01:07.192Z,9.70
2023-04-26T08:03:34.952Z,9.90
2023-04-26T08:06:02.887Z,10.00
2023-04-26T08:11:00.641Z,9.40
2023-04-26T08:13:29.469Z,9.70
2023-04-26T08:15:59.904Z,9.90
2023-04-26T08:18:27.253Z,9.50
2023-04-26T08:20:57.407Z,9.40
2023-04-26T08:23:25.090Z,9.40
2023-04-26T08:25:52.405Z,9.30
2023-04-26T08:28:19.986Z,9.30
2023-04-26T08:30:47.405Z,9.50
2023-04-26T08:33:15.381Z,9.50
2023-04-26T08:35:42.723Z,8.90
2023-04-26T08:38:10.054Z,9.60
2023-04-26T08:40:37.545Z,8.30
2023-04-26T08:43:04.951Z,9.20
2023-04-26T08:45:35.010Z,9.50
2023-04-26T08:48:12.008Z,9.20
2023-04-26T08:50:40.732Z,9.20
2023-04-26T08:53:08.468Z,10.20
2023-04-26T08:55:37.638Z,9.30
2023-04-26T08:58:05.954Z,9.30
2023-04-26T09:00:33.629Z,9.20
2023-04-26T09:05:29.090Z,9.30
2023-04-26T09:08:05.249Z,9.60
2023-04-26T09:13:01.357Z,9.40
2023-04-26T09:15:31.249Z,9.30
2023-04-26T09:18:20.410Z,9.40
2023-04-26T09:21:06.387Z,9.20
2023-04-26T09:23:34.375Z,9.30
2023-04-26T09:26:22.631Z,9.30
2023-04-26T09:28:50.965Z,9.40
2023-04-26T09:31:38.759Z,10.40
2023-04-26T09:34:06.436Z,9.40
2023-04-26T09:36:53.872Z,9.50
2023-04-26T09:39:40.209Z,9.70
2023-04-26T09:42:13.969Z,9.60
2023-04-26T09:44:41.316Z,9.60
2023-04-26T09:47:11.478Z,9.80
2023-04-26T09:49:51.656Z,9.90
2023-04-26T09:52:19.868Z,9.70
2023-04-26T09:54:49.852Z,9.60
2023-04-26T09:57:19.715Z,9.90
2023-04-26T09:59:49.284Z,9.90
2023-04-26T10:02:22.551Z,10.10
2023-04-26T10:04:54.798Z,11.10
2023-04-26T10:07:25.912Z,10.30
2023-04-26T10:09:55.437Z,10.40
2023-04-26T10:12:24.292Z,10.70
2023-04-26T10:14:51.880Z,10.80
2023-04-26T10:17:21.029Z,11.00
2023-04-26T10:19:53.530Z,11.30
2023-04-26T10:22:25.524Z,11.30
2023-04-26T10:24:54.998Z,11.80
2023-04-26T10:28:02.429Z,13.00
2023-04-26T10:30:30.290Z,11.90
2023-04-26T10:33:04.980Z,12.10
2023-04-26T10:35:33.601Z,12.00
2023-04-26T10:38:01.544Z,12.00
2023-04-26T10:41:16.762Z,11.80
2023-04-26T10:43:45.564Z,12.00
2023-04-26T10:46:51.117Z,12.30
2023-04-26T10:49:50.113Z,12.30
2023-04-26T10:52:24.749Z,12.10
2023-04-26T10:55:04.766Z,12.00
2023-04-26T10:58:39.696Z,11.80
2023-04-26T11:01:19.838Z,12.20
2023-04-26T11:04:14.455Z,12.00
2023-04-26T11:07:08.845Z,12.10
2023-04-26T11:09:37.421Z,12.10
2023-04-26T11:12:10.436Z,12.20
2023-04-26T11:14:42.372Z,12.40
2023-04-26T11:17:11.645Z,12.50
2023-04-26T11:19:58.053Z,12.80
2023-04-26T11:22:25.526Z,12.90
2023-04-26T11:24:53.093Z,12.90
2023-04-26T11:29:48.622Z,13.10
2023-04-26T11:32:16.598Z,13.20
2023-04-26T11:34:44.230Z,13.10
2023-04-26T11:37:11.989Z,13.20
2023-04-26T11:39:42.835Z,13.20
2023-04-26T11:42:11.748Z,13.30
2023-04-26T11:44:41.376Z,13.80
2023-04-26T11:47:13.269Z,13.60
2023-04-26T11:49:41.403Z,13.50
2023-04-26T11:52:14.902Z,13.60
2023-04-26T11:54:52.833Z,13.70
2023-04-26T11:57:21.021Z,13.80
2023-04-26T11:59:48.807Z,13.70
2023-04-26T12:02:16.247Z,13.80
2023-04-26T12:04:44.680Z,13.80
2023-04-26T12:07:12.465Z,13.80
2023-04-26T12:09:44.178Z,13.80
2023-04-26T12:12:14.737Z,13.70
2023-04-26T12:14:52.816Z,13.70
2023-04-26T12:17:20.446Z,13.50
2023-04-26T12:19:56.581Z,13.60
2023-04-26T12:22:28.605Z,13.50
2023-04-26T12:25:14.590Z,14.00
2023-04-26T12:30:16.947Z,13.50
2023-04-26T12:32:52.526Z,13.60
2023-04-26T12:35:22.074Z,13.60
2023-04-26T12:38:00.644Z,13.90
2023-04-26T12:40:31.230Z,14.30
2023-04-26T12:42:59.186Z,14.10
2023-04-26T12:45:37.693Z,14.20
2023-04-26T12:50:36.374Z,14.70
2023-04-26T12:53:03.764Z,14.80
2023-04-26T12:55:32.942Z,14.70
2023-04-26T12:58:00.709Z,16.10
2023-04-26T13:00:31.040Z,15.10
2023-04-26T13:02:58.581Z,15.40
2023-04-26T13:05:26.226Z,15.50
2023-04-26T13:07:54.466Z,15.60
2023-04-26T13:10:27.836Z,15.60
2023-04-26T13:12:55.840Z,15.70
2023-04-26T13:15:24.743Z,15.60
2023-04-26T13:17:52.495Z,15.60
2023-04-26T13:20:21.059Z,15.50
2023-04-26T13:22:48.465Z,15.40
2023-04-26T13:25:18.124Z,15.30
2023-04-26T13:27:46.440Z,15.20
2023-04-26T13:30:14.636Z,15.30
2023-04-26T13:32:42.883Z,15.10
2023-04-26T13:35:12.101Z,15.30
2023-04-26T13:37:39.710Z,15.00
2023-04-26T13:40:07.919Z,15.10
2023-04-26T13:42:40.711Z,15.20
2023-04-26T13:45:18.822Z,14.90
2023-04-26T13:47:47.158Z,14.90
2023-04-26T13:50:14.883Z,14.80
2023-04-26T13:52:44.064Z,14.70
2023-04-26T13:55:11.744Z,14.80
2023-04-26T13:57:39.699Z,14.70
2023-04-26T14:00:11.762Z,15.00
2023-04-26T14:02:39.511Z,14.60
2023-04-26T14:05:09.625Z,14.70
2023-04-26T14:07:37.325Z,14.60
2023-04-26T14:10:06.428Z,14.70
2023-04-26T14:12:38.151Z,14.80
2023-04-26T14:15:06.690Z,14.70
2023-04-26T14:17:34.532Z,14.80
2023-04-26T14:20:02.251Z,14.70
2023-04-26T14:22:30.132Z,14.90
2023-04-26T14:24:57.863Z,15.20
2023-04-26T14:27:28.435Z,15.10
2023-04-26T14:29:56.374Z,15.10
2023-04-26T14:32:24.069Z,15.30
2023-04-26T14:34:51.761Z,15.40
2023-04-26T14:37:22.548Z,15.70
2023-04-26T14:39:50.938Z,15.50
2023-04-26T14:42:21.624Z,15.50
2023-04-26T14:44:49.460Z,15.50
2023-04-26T14:47:17.003Z,15.50
2023-04-26T14:49:44.432Z,15.20
2023-04-26T14:52:12.072Z,15.50
2023-04-26T14:54:39.828Z,15.20
2023-04-26T14:57:13.343Z,14.60
2023-04-26T14:59:47.204Z,15.00
2023-04-26T15:02:15.230Z,14.90
2023-04-26T15:04:43.633Z,14.90
2023-04-26T15:07:30.901Z,14.90
2023-04-26T15:10:04.050Z,14.50
2023-04-26T15:12:31.971Z,14.00
2023-04-26T15:15:03.547Z,14.30
2023-04-26T15:17:34.729Z,14.10
2023-04-26T15:20:09.330Z,13.70
2023-04-26T15:22:38.679Z,13.90
2023-04-26T15:25:13.027Z,14.20
2023-04-26T15:27:41.250Z,13.90
2023-04-26T15:30:11.783Z,13.90
2023-04-26T15:32:40.700Z,14.10
2023-04-26T15:35:18.304Z,13.80
2023-04-26T15:37:46.334Z,13.80
2023-04-26T15:40:19.599Z,13.80
2023-04-26T15:42:49.172Z,13.70
2023-04-26T15:45:16.914Z,13.70
2023-04-26T15:47:47.669Z,14.60
2023-04-26T15:50:15.193Z,13.70
2023-04-26T15:52:47.114Z,13.60
2023-04-26T15:55:15.264Z,13.40
2023-04-26T15:57:47.015Z,13.30
2023-04-26T16:00:30.313Z,13.40
2023-04-26T16:05:27.938Z,13.70
2023-04-26T16:08:01.338Z,13.50
2023-04-26T16:10:32.328Z,13.50
2023-04-26T16:12:59.808Z,13.40
2023-04-26T16:15:29.846Z,13.50
2023-04-26T16:18:00.331Z,14.20
2023-04-26T16:20:38.696Z,13.50
2023-04-26T16:23:07.680Z,13.40
2023-04-26T16:28:19.752Z,13.10
2023-04-26T16:33:22.052Z,13.30
2023-04-26T16:35:55.245Z,13.30
2023-04-26T16:38:26.333Z,13.50
2023-04-26T16:40:58.685Z,13.30
2023-04-26T16:43:30.586Z,13.10
2023-04-26T16:46:07.006Z,12.60
2023-04-26T16:48:36.042Z,13.00
2023-04-26T16:51:07.443Z,13.60
2023-04-26T16:53:37.153Z,13.00
2023-04-26T16:56:05.310Z,12.70
2023-04-26T16:58:32.954Z,12.90
2023-04-26T17:01:01.051Z,12.70
2023-04-26T17:06:02.588Z,12.70
2023-04-26T17:08:30.543Z,12.60
2023-04-26T17:10:58.544Z,12.50
2023-04-26T17:13:29.571Z,12.40
2023-04-26T17:15:57.503Z,12.60
2023-04-26T17:18:27.797Z,12.00
2023-04-26T17:20:59.526Z,12.50
2023-04-26T17:23:27.210Z,12.10
2023-04-26T17:25:57.787Z,12.50
2023-04-26T17:33:31.591Z,11.90
2023-04-26T17:35:59.387Z,12.10
2023-04-26T17:38:26.904Z,11.70
2023-04-26T17:40:54.896Z,12.10
2023-04-26T17:43:22.500Z,12.10
2023-04-26T17:45:49.900Z,12.00
2023-04-26T17:48:17.880Z,11.80
2023-04-26T17:50:46.005Z,11.80
2023-04-26T17:53:14.912Z,11.70
2023-04-26T17:55:42.535Z,12.00
2023-04-26T17:58:09.930Z,11.80
2023-04-26T18:00:37.194Z,11.70
2023-04-26T18:03:05.150Z,11.80
2023-04-26T18:08:01.862Z,11.80
2023-04-26T18:10:29.266Z,11.80
2023-04-26T18:13:00.054Z,11.70
2023-04-26T18:15:30.778Z,11.90
2023-04-26T18:18:01.347Z,11.10
2023-04-26T18:20:32.029Z,11.70
2023-04-26T18:22:59.450Z,11.70
2023-04-26T18:25:26.960Z,11.60
2023-04-26T18:27:54.756Z,11.70
2023-04-26T18:30:22.281Z,11.40
2023-04-26T18:32:52.921Z,11.40
2023-04-26T18:35:20.693Z,11.40
2023-04-26T18:37:48.194Z,11.50
2023-04-26T18:40:15.809Z,11.40
2023-04-26T18:42:45.060Z,11.40
2023-04-26T18:45:12.933Z,11.40
2023-04-26T18:47:43.195Z,11.30
2023-04-26T18:50:10.966Z,11.70
2023-04-26T18:52:39.703Z,11.50
2023-04-26T18:55:08.106Z,11.40
2023-04-26T18:57:36.044Z,11.20
2023-04-26T19:00:05.586Z,11.20
2023-04-26T19:02:38.481Z,11.20
2023-04-26T19:05:10.148Z,11.10
2023-04-26T19:07:37.714Z,11.00
2023-04-26T19:10:07.508Z,11.60
2023-04-26T19:12:34.938Z,11.30
2023-04-26T19:15:02.596Z,11.30
2023-04-26T19:17:33.237Z,10.90
2023-04-26T19:20:01.069Z,11.30
2023-04-26T19:22:28.535Z,11.00
2023-04-26T19:27:24.108Z,10.90
2023-04-26T19:29:51.676Z,11.20
2023-04-26T19:32:19.920Z,10.90
2023-04-26T19:34:48.499Z,11.20
2023-04-26T19:37:16.235Z,10.90
2023-04-26T19:39:43.971Z,10.70
2023-04-26T19:42:11.858Z,10.70
2023-04-26T19:44:39.973Z,10.70
2023-04-26T19:47:08.653Z,10.70
2023-04-26T19:49:36.654Z,10.80
2023-04-26T19:52:04.279Z,10.80
2023-04-26T19:57:00.149Z,10.70
2023-04-26T19:59:27.758Z,10.70
2023-04-26T20:01:55.134Z,10.70
2023-04-26T20:06:52.105Z,10.70
2023-04-26T20:09:21.179Z,10.40
2023-04-26T20:11:49.820Z,10.60
2023-04-26T20:14:18.028Z,10.70
2023-04-26T20:16:45.818Z,10.70
2023-04-26T20:19:13.564Z,10.90
2023-04-26T20:21:41.132Z,10.60
2023-04-26T20:24:08.883Z,10.70
2023-04-26T20:26:36.234Z,10.60
2023-04-26T20:29:03.568Z,10.60
2023-04-26T20:34:00.879Z,10.50
2023-04-26T20:36:28.673Z,10.60
2023-04-26T20:38:55.931Z,10.50
2023-04-26T20:41:23.526Z,10.60
2023-04-26T20:43:52.937Z,10.50
2023-04-26T20:46:20.609Z,10.60
2023-04-26T20:48:48.116Z,10.50
2023-04-26T20:51:15.895Z,10.50
2023-04-26T20:53:43.773Z,10.50
2023-04-26T20:56:11.344Z,10.70
2023-04-26T20:58:39.434Z,10.60
2023-04-26T21:01:07.433Z,10.80
2023-04-26T21:03:35.777Z,10.50
2023-04-26T21:06:03.424Z,10.40
2023-04-26T21:08:30.861Z,10.40
2023-04-26T21:10:59.595Z,10.40
2023-04-26T21:13:29.120Z,10.70
2023-04-26T21:15:58.959Z,10.40
2023-04-26T21:18:26.509Z,10.50
2023-04-26T21:20:53.877Z,10.40
2023-04-26T21:23:21.291Z,10.40
2023-04-26T21:28:16.624Z,10.40
2023-04-26T21:30:44.020Z,10.60
2023-04-26T21:33:12.549Z,10.80
2023-04-26T21:35:40.057Z,10.60
2023-04-26T21:38:08.674Z,10.40
2023-04-26T21:40:36.031Z,10.40
2023-04-26T21:43:05.393Z,10.30
2023-04-26T21:45:32.960Z,10.50
2023-04-26T21:48:00.374Z,10.40
2023-04-26T21:50:28.387Z,10.30
2023-04-26T21:52:55.799Z,10.30
2023-04-26T21:55:23.160Z,10.30
2023-04-26T21:57:50.463Z,10.30
2023-04-26T22:00:18.266Z,10.20
2023-04-26T22:02:47.374Z,10.10
2023-04-26T22:05:14.720Z,10.20
2023-04-26T22:07:44.600Z,10.50
2023-04-26T22:10:12.258Z,10.20
2023-04-26T22:12:39.708Z,10.20
2023-04-26T22:15:07.772Z,10.10
2023-04-26T22:17:35.504Z,10.10
2023-04-26T22:22:31.201Z,10.00
2023-04-26T22:24:58.584Z,10.10
2023-04-26T22:27:25.900Z,10.10
2023-04-26T22:29:53.269Z,9.90
2023-04-26T22:32:20.634Z,9.90
2023-04-26T22:34:47.958Z,10.40
2023-04-26T22:37:21.191Z,9.90
2023-04-26T22:39:49.253Z,9.80
2023-04-26T22:42:16.612Z,9.80
2023-04-26T22:44:43.961Z,9.80
2023-04-26T22:47:11.346Z,9.60
2023-04-26T22:52:14.144Z,9.40
2023-04-26T22:54:47.925Z,9.50
2023-04-26T22:57:15.316Z,9.60
2023-04-26T22:59:42.566Z,9.40
2023-04-26T23:02:10.007Z,9.40
2023-04-26T23:04:37.489Z,9.30
2023-04-26T23:07:04.855Z,9.30
2023-04-26T23:09:32.603Z,9.80
2023-04-26T23:12:00.081Z,10.60
2023-04-26T23:14:29.594Z,8.80
2023-04-26T23:19:28.161Z,8.70
2023-04-26T23:21:55.642Z,9.40
2023-04-26T23:24:23.036Z,8.90
2023-04-26T23:26:50.287Z,8.60
2023-04-26T23:29:17.538Z,8.30
2023-04-26T23:31:45.021Z,8.40
2023-04-26T23:34:12.551Z,8.30
2023-04-26T23:36:39.910Z,8.30
2023-04-26T23:39:07.251Z,9.30
2023-04-26T23:41:34.584Z,8.20
2023-04-26T23:44:01.995Z,8.20
2023-04-26T23:46:29.638Z,7.90
2023-04-26T23:48:56.949Z,8.00
2023-04-26T23:51:24.292Z,7.80
2023-04-26T23:53:51.549Z,7.90
2023-04-26T23:56:19.185Z,7.80
2023-04-26T23:58:46.564Z,7.80
